createdAt,value
2022-09-18T00:01:23.171Z,8.40
2022-09-18T00:05:31.064Z,7.20
2022-09-18T00:09:40.309Z,6.70
2022-09-18T00:13:48.297Z,7.00
2022-09-18T00:17:56.706Z,7.40
2022-09-18T00:22:04.228Z,10.50
2022-09-18T00:26:13.477Z,5.80
2022-09-18T00:30:22.550Z,7.40
2022-09-18T00:34:29.879Z,6.40
2022-09-18T00:38:38.048Z,7.20
2022-09-18T00:42:45.805Z,8.00
2022-09-18T00:46:53.626Z,7.60
2022-09-18T00:51:01.890Z,9.00
2022-09-18T00:55:12.073Z,7.70
2022-09-18T00:59:23.855Z,11.40
2022-09-18T01:03:32.279Z,10.40
2022-09-18T01:07:54.882Z,7.50
2022-09-18T01:12:10.656Z,6.00
2022-09-18T01:16:23.935Z,4.60
2022-09-18T01:21:00.994Z,4.00
2022-09-18T01:25:22.540Z,4.80
2022-09-18T01:29:40.439Z,2.80
2022-09-18T01:33:53.378Z,4.30
2022-09-18T01:38:07.740Z,3.00
2022-09-18T01:42:16.178Z,2.70
2022-09-18T01:46:26.347Z,3.40
2022-09-18T01:50:36.836Z,4.20
2022-09-18T01:54:46.605Z,2.80
2022-09-18T01:58:55.242Z,3.20
2022-09-18T02:03:06.663Z,2.30
2022-09-18T02:07:18.706Z,3.00
2022-09-18T02:11:27.066Z,3.00
2022-09-18T02:15:40.072Z,2.10
2022-09-18T02:19:51.150Z,4.00
2022-09-18T02:24:02.540Z,2.60
2022-09-18T02:28:11.170Z,2.10
2022-09-18T02:32:18.884Z,1.60
2022-09-18T02:36:48.821Z,1.90
2022-09-18T02:41:02.337Z,2.60
2022-09-18T02:45:16.866Z,1.80
2022-09-18T02:49:33.070Z,2.10
2022-09-18T02:53:44.186Z,4.10
2022-09-18T02:57:57.129Z,2.50
2022-09-18T03:02:05.188Z,7.40
2022-09-18T03:06:13.186Z,2.10
2022-09-18T03:10:20.701Z,3.20
2022-09-18T03:14:28.527Z,3.50
2022-09-18T03:18:36.574Z,3.70
2022-09-18T03:22:44.384Z,3.40
2022-09-18T03:26:52.517Z,4.10
2022-09-18T03:31:00.545Z,2.60
2022-09-18T03:35:09.632Z,2.60
2022-09-18T03:39:17.354Z,3.10
2022-09-18T03:43:25.048Z,2.70
2022-09-18T03:47:36.262Z,3.00
2022-09-18T03:51:44.199Z,2.80
2022-09-18T03:55:53.591Z,3.60
2022-09-18T04:00:01.136Z,1.80
2022-09-18T04:04:09.040Z,4.90
2022-09-18T04:08:18.188Z,4.00
2022-09-18T04:12:26.278Z,4.10
2022-09-18T04:16:34.176Z,8.10
2022-09-18T04:20:42.233Z,4.00
2022-09-18T04:24:50.588Z,3.30
2022-09-18T04:28:58.165Z,4.50
2022-09-18T04:33:08.440Z,4.10
2022-09-18T04:37:15.817Z,3.80
2022-09-18T04:41:23.475Z,4.70
2022-09-18T04:45:30.715Z,3.40
2022-09-18T04:49:38.123Z,4.00
2022-09-18T04:53:45.500Z,3.80
2022-09-18T04:57:54.648Z,3.60
2022-09-18T05:02:02.757Z,4.40
2022-09-18T05:06:11.328Z,4.60
2022-09-18T05:10:19.815Z,4.20
2022-09-18T05:14:28.512Z,4.60
2022-09-18T05:18:36.165Z,4.10
2022-09-18T05:22:47.669Z,4.80
2022-09-18T05:26:55.624Z,4.50
2022-09-18T05:31:04.124Z,4.20
2022-09-18T05:35:11.856Z,4.50
2022-09-18T05:39:19.235Z,5.60
2022-09-18T05:43:26.922Z,4.40
2022-09-18T05:47:36.440Z,5.30
2022-09-18T05:51:44.982Z,4.40
2022-09-18T05:55:52.623Z,4.40
2022-09-18T06:00:00.735Z,6.50
2022-09-18T06:04:08.929Z,5.20
2022-09-18T06:08:17.321Z,4.80
2022-09-18T06:12:24.871Z,5.40
2022-09-18T06:16:32.584Z,5.60
2022-09-18T06:20:40.236Z,4.80
2022-09-18T06:24:47.684Z,5.10
2022-09-18T06:28:55.339Z,4.70
2022-09-18T06:33:06.744Z,2.90
2022-09-18T06:37:15.272Z,2.80
2022-09-18T06:41:22.591Z,2.90
2022-09-18T06:45:31.223Z,1.90
2022-09-18T06:49:40.869Z,2.30
2022-09-18T06:53:49.484Z,2.00
2022-09-18T06:58:01.440Z,2.40
2022-09-18T07:02:11.114Z,2.90
2022-09-18T07:06:20.178Z,1.60
2022-09-18T07:10:28.563Z,2.70
2022-09-18T07:14:37.415Z,2.90
2022-09-18T07:18:44.717Z,2.60
2022-09-18T07:22:57.566Z,2.70
2022-09-18T07:27:07.831Z,2.50
2022-09-18T07:31:16.167Z,2.70
2022-09-18T07:35:23.649Z,2.40
2022-09-18T07:39:31.670Z,2.30
2022-09-18T07:43:39.756Z,2.40
2022-09-18T07:47:46.975Z,3.30
2022-09-18T07:51:54.574Z,1.90
2022-09-18T07:56:06.359Z,3.00
2022-09-18T08:00:15.844Z,3.70
2022-09-18T08:04:23.549Z,3.90
2022-09-18T08:08:32.009Z,3.80
2022-09-18T08:12:39.127Z,4.40
2022-09-18T08:16:46.678Z,4.40
2022-09-18T08:20:53.997Z,2.10
2022-09-18T08:25:01.717Z,2.10
2022-09-18T08:29:09.848Z,2.60
2022-09-18T08:33:17.538Z,2.20
2022-09-18T08:37:26.355Z,4.20
2022-09-18T08:41:46.823Z,2.20
2022-09-18T08:45:59.170Z,3.10
2022-09-18T08:50:19.812Z,3.80
2022-09-18T08:54:37.813Z,2.70
2022-09-18T08:58:48.916Z,2.40
2022-09-18T09:03:01.720Z,4.30
2022-09-18T09:07:21.510Z,3.40
2022-09-18T09:11:39.085Z,2.40
2022-09-18T09:15:50.825Z,2.20
2022-09-18T09:20:16.790Z,2.80
2022-09-18T09:24:33.894Z,2.90
2022-09-18T09:28:51.468Z,4.70
2022-09-18T09:33:03.363Z,2.70
2022-09-18T09:37:17.800Z,4.80
2022-09-18T09:41:31.742Z,4.70
2022-09-18T09:45:46.863Z,8.40
2022-09-18T09:50:05.145Z,6.90
2022-09-18T09:54:14.491Z,8.70
2022-09-18T09:58:31.577Z,6.60
2022-09-18T10:02:58.325Z,7.50
2022-09-18T10:07:15.465Z,7.30
2022-09-18T10:11:23.630Z,8.80
2022-09-18T10:15:38.976Z,9.70
2022-09-18T10:19:46.475Z,9.10
2022-09-18T10:23:57.659Z,7.30
2022-09-18T10:28:05.770Z,10.10
2022-09-18T10:32:14.316Z,9.90
2022-09-18T10:36:29.375Z,11.70
2022-09-18T10:40:40.353Z,10.50
2022-09-18T10:44:55.785Z,12.80
2022-09-18T10:49:18.007Z,10.20
2022-09-18T10:53:32.272Z,10.10
2022-09-18T10:57:43.832Z,10.30
2022-09-18T11:01:51.914Z,11.00
2022-09-18T11:06:03.162Z,8.20
2022-09-18T11:10:18.464Z,8.50
2022-09-18T11:14:28.150Z,8.70
2022-09-18T11:18:36.886Z,11.80
2022-09-18T11:22:47.200Z,9.80
2022-09-18T11:26:56.930Z,10.50
2022-09-18T11:31:06.493Z,9.90
2022-09-18T11:35:18.132Z,10.50
2022-09-18T11:39:29.983Z,7.40
2022-09-18T11:43:40.405Z,7.40
2022-09-18T11:47:49.867Z,10.30
2022-09-18T11:52:01.331Z,7.60
2022-09-18T11:56:14.386Z,8.10
2022-09-18T12:00:24.318Z,7.40
2022-09-18T12:04:40.741Z,7.40
2022-09-18T12:08:52.315Z,7.00
2022-09-18T12:13:18.778Z,6.60
2022-09-18T12:17:29.655Z,6.90
2022-09-18T12:21:43.489Z,8.00
2022-09-18T12:26:02.373Z,8.40
2022-09-18T12:30:12.499Z,9.30
2022-09-18T12:34:28.490Z,7.50
2022-09-18T12:38:47.257Z,8.90
2022-09-18T12:43:06.110Z,7.10
2022-09-18T12:47:27.895Z,5.50
2022-09-18T12:51:42.708Z,6.50
2022-09-18T12:56:03.804Z,5.80
2022-09-18T13:00:13.967Z,6.90
2022-09-18T13:04:27.729Z,6.90
2022-09-18T13:08:40.684Z,6.30
2022-09-18T13:12:55.564Z,6.40
2022-09-18T13:17:07.821Z,7.80
2022-09-18T13:21:19.277Z,6.30
2022-09-18T13:25:31.753Z,5.70
2022-09-18T13:30:00.144Z,5.90
2022-09-18T13:34:15.528Z,5.90
2022-09-18T13:38:24.582Z,7.40
2022-09-18T13:42:38.374Z,6.50
2022-09-18T13:46:46.096Z,6.80
2022-09-18T13:50:59.826Z,6.60
2022-09-18T13:55:35.334Z,7.10
2022-09-18T13:59:52.665Z,5.70
2022-09-18T14:04:02.406Z,7.00
2022-09-18T14:08:16.470Z,6.40
2022-09-18T14:12:25.391Z,8.70
2022-09-18T14:16:40.996Z,9.20
2022-09-18T14:20:54.114Z,9.30
2022-09-18T14:25:05.181Z,5.70
2022-09-18T14:29:17.288Z,7.00
2022-09-18T14:33:25.105Z,6.80
2022-09-18T14:37:40.095Z,7.10
2022-09-18T14:41:51.552Z,5.90
2022-09-18T14:46:09.877Z,5.40
2022-09-18T14:50:37.535Z,5.20
2022-09-18T14:54:50.601Z,5.40
2022-09-18T14:59:00.723Z,8.50
2022-09-18T15:03:15.656Z,5.70
2022-09-18T15:07:25.492Z,5.50
2022-09-18T15:11:46.899Z,5.10
2022-09-18T15:16:07.703Z,7.80
2022-09-18T15:20:20.094Z,5.80
2022-09-18T15:24:27.989Z,6.90
2022-09-18T15:28:38.002Z,7.50
2022-09-18T15:32:49.453Z,6.00
2022-09-18T15:37:01.002Z,6.50
2022-09-18T15:41:38.757Z,5.80
2022-09-18T15:46:04.181Z,4.90
2022-09-18T15:50:34.157Z,5.10
2022-09-18T15:54:42.729Z,5.20
2022-09-18T15:58:55.966Z,6.50
2022-09-18T16:03:05.306Z,5.50
2022-09-18T16:07:22.928Z,5.50
2022-09-18T16:11:46.289Z,6.60
2022-09-18T16:16:29.910Z,7.50
2022-09-18T16:20:40.212Z,5.30
2022-09-18T16:24:49.989Z,6.90
2022-09-18T16:28:59.288Z,5.60
2022-09-18T16:33:16.880Z,5.80
2022-09-18T16:37:24.659Z,7.50
2022-09-18T16:41:33.851Z,7.50
2022-09-18T16:45:42.271Z,8.00
2022-09-18T16:49:51.070Z,4.30
2022-09-18T16:53:59.061Z,6.10
2022-09-18T16:58:07.651Z,5.80
2022-09-18T17:02:17.260Z,4.60
2022-09-18T17:06:24.892Z,6.30
2022-09-18T17:10:32.814Z,5.10
2022-09-18T17:14:41.297Z,5.70
2022-09-18T17:18:49.240Z,4.60
2022-09-18T17:22:57.521Z,5.40
2022-09-18T17:27:05.760Z,5.60
2022-09-18T17:31:15.248Z,6.20
2022-09-18T17:35:23.676Z,8.10
2022-09-18T17:39:31.970Z,6.40
2022-09-18T17:43:40.232Z,5.30
2022-09-18T17:47:53.536Z,5.60
2022-09-18T17:52:01.320Z,7.10
2022-09-18T17:56:12.339Z,6.00
2022-09-18T18:00:20.220Z,7.70
2022-09-18T18:04:28.421Z,9.00
2022-09-18T18:08:39.039Z,8.20
2022-09-18T18:12:46.935Z,7.10
2022-09-18T18:16:55.376Z,8.20
2022-09-18T18:21:02.954Z,8.30
2022-09-18T18:25:14.443Z,6.70
2022-09-18T18:29:23.272Z,7.40
2022-09-18T18:33:32.142Z,6.20
2022-09-18T18:37:40.270Z,6.50
2022-09-18T18:41:49.045Z,6.00
2022-09-18T18:45:57.553Z,5.50
2022-09-18T18:50:06.256Z,6.40
2022-09-18T18:54:14.770Z,5.20
2022-09-18T18:58:22.512Z,6.60
2022-09-18T19:02:32.455Z,5.00
2022-09-18T19:06:43.790Z,5.70
2022-09-18T19:11:01.510Z,8.10
2022-09-18T19:15:13.682Z,6.10
2022-09-18T19:19:28.885Z,6.40
2022-09-18T19:23:41.074Z,5.40
2022-09-18T19:27:51.694Z,6.80
2022-09-18T19:32:04.468Z,6.30
2022-09-18T19:36:13.879Z,4.40
2022-09-18T19:40:23.860Z,4.50
2022-09-18T19:44:35.300Z,5.30
2022-09-18T19:48:44.275Z,4.80
2022-09-18T19:52:52.868Z,4.90
2022-09-18T19:57:00.716Z,4.00
2022-09-18T20:01:13.412Z,5.20
2022-09-18T20:05:21.267Z,4.70
2022-09-18T20:09:30.812Z,5.30
2022-09-18T20:13:38.684Z,6.00
2022-09-18T20:17:47.599Z,5.20
2022-09-18T20:21:55.913Z,7.70
2022-09-18T20:26:03.210Z,6.00
2022-09-18T20:30:13.855Z,4.70
2022-09-18T20:34:25.029Z,4.30
2022-09-18T20:38:35.252Z,5.90
2022-09-18T20:42:43.603Z,5.60
2022-09-18T20:46:56.733Z,5.50
2022-09-18T20:51:09.449Z,5.40
2022-09-18T20:55:18.656Z,4.80
2022-09-18T20:59:26.897Z,5.10
2022-09-18T21:03:34.726Z,4.90
2022-09-18T21:07:43.952Z,5.60
2022-09-18T21:11:52.232Z,5.30
2022-09-18T21:16:01.659Z,4.50
2022-09-18T21:20:13.642Z,5.30
2022-09-18T21:24:22.566Z,5.00
2022-09-18T21:28:30.102Z,5.30
2022-09-18T21:32:38.606Z,5.00
2022-09-18T21:36:46.320Z,4.80
2022-09-18T21:40:55.434Z,5.10
2022-09-18T21:45:04.467Z,6.30
2022-09-18T21:49:15.148Z,8.20
2022-09-18T21:53:25.016Z,6.00
2022-09-18T21:57:32.857Z,5.40
2022-09-18T22:01:41.948Z,4.10
2022-09-18T22:05:49.522Z,5.10
2022-09-18T22:09:57.372Z,5.10
2022-09-18T22:14:08.931Z,4.60
2022-09-18T22:18:16.232Z,4.00
2022-09-18T22:22:23.703Z,5.70
2022-09-18T22:26:31.814Z,5.10
2022-09-18T22:30:41.086Z,4.20
2022-09-18T22:34:51.307Z,4.10
2022-09-18T22:39:00.843Z,3.90
2022-09-18T22:43:09.165Z,4.40
2022-09-18T22:47:16.711Z,4.80
2022-09-18T22:51:27.896Z,6.30
2022-09-18T22:55:35.913Z,5.70
2022-09-18T22:59:46.385Z,4.50
2022-09-18T23:03:57.095Z,4.50
2022-09-18T23:08:05.678Z,8.10
2022-09-18T23:12:13.858Z,7.10
2022-09-18T23:16:22.736Z,8.70
2022-09-18T23:20:30.704Z,6.40
2022-09-18T23:24:39.088Z,6.80
2022-09-18T23:28:47.902Z,5.10
2022-09-18T23:32:58.278Z,5.30
2022-09-18T23:37:06.069Z,6.80
2022-09-18T23:41:16.798Z,7.40
2022-09-18T23:45:26.079Z,6.50
2022-09-18T23:49:33.937Z,6.50
2022-09-18T23:53:43.032Z,5.70
2022-09-18T23:57:50.857Z,5.60
